Kobuk Valley National Park, AK

4:31 PM AKDT op 30 augustus 2014 (GMT -0800)
RAWS SALMON RIVER AK US | Change Station
CLOSE
Current Station
Persoonlijk weerstation
Location: Kiana, AK
Geometrische hoogte: 1201 ft
Nabije weerstations

Hoogte 1201 ft 67.46 °N, 159.84 °W | Updated 53 minutes ago

Clear
Helder
37 °F
Voelt als 30 °F
N
10
Wind Variabel Wind van ZZW
Gusts 19.0 mijl/u

Vandaag
Hoog -- | Laag -- °F
--% Kans op neerslag
Gisteren
Hoog -- | Laag -- °F
Precip. -- inches
7:03 AM 10:17 PM
Wassende halvemaan, 26% visible
Druk 29.81 inches
Zicht 10.0 mijlen
Wolken Helder
Gevoelstemperatuur 30 °F
Dauwpunt 34 °F
Vochtigheid 87%
Neerslag 0.00 inches
Dikte sneeuw Niet beschikbaar.
UV 3 van de 12
Pollen Niet beschikbaar.
Luchtkwaliteit Niet beschikbaar.
Flu Activity Niet beschikbaar.
METAR PAIK 310001Z AUTO VRB06KT 10SM CLR 07/03 A2968 RMK AO2 SLP093 6//// T00670028 10067 20033 58007 PNO $

More Conditions Fewer Conditions

Druk 29.81 inches
Zicht 10.0 mijlen
Wolken Helder
Gevoelstemperatuur 30 °F
Dauwpunt 34 °F
Vochtigheid 87%
Neerslag 0.00 inches
Dikte sneeuw Niet beschikbaar.
UV 3 van de 12
Pollen Niet beschikbaar.
Luchtkwaliteit Niet beschikbaar.
Flu Activity Niet beschikbaar.
METAR PAIK 310001Z AUTO VRB06KT 10SM CLR 07/03 A2968 RMK AO2 SLP093 6//// T00670028 10067 20033 58007 PNO $

More Conditions Fewer Conditions

10-Day Weather Forecast

Almanac

Astronomie

Aug. 30, 2014 Opkomst Ondergang
Werkelijke tijd 7:03 AM AKDT 10:17 PM AKDT
Burgerlijke schemering 5:57 AM AKDT 11:22 PM AKDT
Nautische schemering 4:07 AM AKDT 1:07 AM AKDT
Astronomische schemering Sun does not rise Sun does not rise
Maan 2:37 PM AKDT (8/30) 10:19 PM AKDT (8/30)
Golflengte van het zichtbare licht 17h 24m
Daglengte
15h 14m
Tomorrow will be 7m 50s shorter.
Wassende halvemaan, 26% of the Moon is Illuminated
Vandaag
Wassende halvemaan
sep 2
Eerste kwartier
sep 8
Volle maan
sep 15
Laatste kwartier
sep 24
Nieuw

Extremen vandaag

State Highs State Lows

Community

WunderPhotos

Upload Photos

1,748,706 foto’s ge-upload!

Nearby

Luchtkwaliteit

Not available.

Dikte sneeuw

Station Depth Geometrische hoogte
Rocky Point 5 in 500 ft
Gobblers Knob 0 in 2030 ft
Coldfoot 0 in 1040 ft
Atigun Pass 3 in 4800 ft
Imnaviat Creek 0 in 3050 ft

Aardbevingen

Stad Distance Mag. Time & Date
No recent earthquake activity has been reported nearby.
Minimum magnitude displayed is 2.5.

Watertemperatuur langs de kust

Plaats Temperatuur
Geen meldingen van stations

Nabije weerstations